createdAt,value
2019-02-20T00:01:42.326Z,29.08
2019-02-20T00:04:08.667Z,28.98
2019-02-20T00:06:34.995Z,29.08
2019-02-20T00:09:01.350Z,29.25
2019-02-20T00:11:27.684Z,29.27
2019-02-20T00:13:54.105Z,29.25
2019-02-20T00:16:20.481Z,29.24
2019-02-20T00:18:46.821Z,29.26
2019-02-20T00:21:13.241Z,29.28
2019-02-20T00:23:39.660Z,29.26
2019-02-20T00:26:05.903Z,29.14
2019-02-20T00:28:32.229Z,29.10
2019-02-20T00:30:58.597Z,29.27
2019-02-20T00:33:25.121Z,29.19
2019-02-20T00:35:51.441Z,29.29
2019-02-20T00:38:17.832Z,29.40
2019-02-20T00:40:44.167Z,29.38
2019-02-20T00:43:10.494Z,29.43
2019-02-20T00:45:36.887Z,29.36
2019-02-20T00:48:03.294Z,29.37
2019-02-20T00:50:29.625Z,29.25
2019-02-20T00:52:55.972Z,29.33
2019-02-20T00:55:22.287Z,29.36
2019-02-20T00:57:48.612Z,29.30
2019-02-20T01:00:14.970Z,29.44
2019-02-20T01:02:41.294Z,29.31
2019-02-20T01:05:07.631Z,28.77
2019-02-20T01:07:34.025Z,28.63
2019-02-20T01:10:00.541Z,28.82
2019-02-20T01:12:26.804Z,28.67
2019-02-20T01:14:53.134Z,28.76
2019-02-20T01:17:19.470Z,28.89
2019-02-20T01:19:45.861Z,28.83
2019-02-20T01:22:12.224Z,28.71
2019-02-20T01:24:38.558Z,28.76
2019-02-20T01:27:04.881Z,28.50
2019-02-20T01:29:31.217Z,28.47
2019-02-20T01:31:57.574Z,28.27
2019-02-20T01:34:23.916Z,28.44
2019-02-20T01:36:50.251Z,28.34
2019-02-20T01:39:16.587Z,28.18
2019-02-20T01:41:42.951Z,28.23
2019-02-20T01:44:09.350Z,28.22
2019-02-20T01:46:35.678Z,28.02
2019-02-20T01:49:02.077Z,28.02
2019-02-20T01:51:28.403Z,27.88
2019-02-20T01:53:54.737Z,27.99
2019-02-20T01:56:21.068Z,28.04
2019-02-20T01:58:47.403Z,27.89
2019-02-20T02:01:13.740Z,27.88
2019-02-20T02:03:40.119Z,27.70
2019-02-20T02:06:06.512Z,27.81
2019-02-20T02:08:32.808Z,27.76
2019-02-20T02:10:59.203Z,27.83
2019-02-20T02:13:25.634Z,27.91
2019-02-20T02:15:52.029Z,27.79
2019-02-20T02:18:18.341Z,27.78
2019-02-20T02:20:44.726Z,27.60
2019-02-20T02:23:19.430Z,27.57
2019-02-20T02:25:37.441Z,27.41
2019-02-20T02:28:03.809Z,27.37
2019-02-20T02:30:30.138Z,27.28
2019-02-20T02:32:57.380Z,27.23
2019-02-20T02:35:22.799Z,27.23
2019-02-20T02:37:49.172Z,27.24
2019-02-20T02:40:15.496Z,27.12
2019-02-20T02:42:41.885Z,26.98
2019-02-20T02:45:08.261Z,27.05
2019-02-20T02:47:34.600Z,27.03
2019-02-20T02:50:00.931Z,27.12
2019-02-20T02:52:27.323Z,26.93
2019-02-20T02:54:53.654Z,26.99
2019-02-20T02:57:19.977Z,26.86
2019-02-20T02:59:46.319Z,27.03
2019-02-20T03:02:12.648Z,26.95
2019-02-20T03:04:38.985Z,26.82
2019-02-20T03:07:05.417Z,27.06
2019-02-20T03:09:31.752Z,26.99
2019-02-20T03:11:58.133Z,26.83
2019-02-20T03:14:24.474Z,27.00
2019-02-20T03:16:50.813Z,26.94
2019-02-20T03:19:17.138Z,26.79
2019-02-20T03:21:43.501Z,26.86
2019-02-20T03:24:09.884Z,26.85
2019-02-20T03:26:36.213Z,26.83
2019-02-20T03:29:02.589Z,26.92
2019-02-20T03:31:28.967Z,26.92
2019-02-20T03:33:55.263Z,26.82
2019-02-20T03:36:21.596Z,26.76
2019-02-20T03:38:47.993Z,26.81
2019-02-20T03:41:14.390Z,26.83
2019-02-20T03:43:40.772Z,26.79
2019-02-20T03:46:07.159Z,26.85
2019-02-20T03:48:33.467Z,26.80
2019-02-20T03:50:59.866Z,26.82
2019-02-20T03:53:26.274Z,26.74
2019-02-20T03:55:52.615Z,26.66
2019-02-20T03:58:18.963Z,26.79
2019-02-20T04:00:45.344Z,26.69
2019-02-20T04:03:11.722Z,26.55
2019-02-20T04:05:38.050Z,26.58
2019-02-20T04:08:04.387Z,26.60
2019-02-20T04:10:30.717Z,26.57
2019-02-20T04:12:57.093Z,26.58
2019-02-20T04:15:23.424Z,26.46
2019-02-20T04:17:49.746Z,26.42
2019-02-20T04:20:16.113Z,26.57
2019-02-20T04:22:42.570Z,26.43
2019-02-20T04:25:08.910Z,26.75
2019-02-20T04:27:35.253Z,26.99
2019-02-20T04:30:01.570Z,26.93
2019-02-20T04:32:27.897Z,27.29
2019-02-20T04:34:54.233Z,27.09
2019-02-20T04:37:20.565Z,27.39
2019-02-20T04:39:46.897Z,26.87
2019-02-20T04:42:13.230Z,27.21
2019-02-20T04:44:39.615Z,27.05
2019-02-20T04:47:05.936Z,26.79
2019-02-20T04:49:32.266Z,26.77
2019-02-20T04:51:58.624Z,26.79
2019-02-20T04:54:24.963Z,26.79
2019-02-20T04:56:51.329Z,26.72
2019-02-20T04:59:17.667Z,26.70
2019-02-20T05:01:44.062Z,26.63
2019-02-20T05:04:10.393Z,26.65
2019-02-20T05:06:36.725Z,26.66
2019-02-20T05:09:03.126Z,26.63
2019-02-20T05:11:29.588Z,26.60
2019-02-20T05:13:55.940Z,26.63
2019-02-20T05:16:22.285Z,26.63
2019-02-20T05:18:48.657Z,26.67
2019-02-20T05:21:15.024Z,26.57
2019-02-20T05:23:42.890Z,26.54
2019-02-20T05:26:07.747Z,26.41
2019-02-20T05:28:34.086Z,26.39
2019-02-20T05:31:00.451Z,26.34
2019-02-20T05:33:26.821Z,26.35
2019-02-20T05:35:53.158Z,26.33
2019-02-20T05:38:19.501Z,26.27
2019-02-20T05:40:45.837Z,26.20
2019-02-20T05:43:12.298Z,26.10
2019-02-20T05:45:38.627Z,26.17
2019-02-20T05:48:05.027Z,26.12
2019-02-20T05:50:31.327Z,26.23
2019-02-20T05:52:57.687Z,26.10
2019-02-20T05:55:24.060Z,26.15
2019-02-20T05:57:50.451Z,26.17
2019-02-20T06:00:16.778Z,26.18
2019-02-20T06:02:43.182Z,26.15
2019-02-20T06:05:09.558Z,26.46
2019-02-20T06:07:35.885Z,27.17
2019-02-20T06:10:02.272Z,26.73
2019-02-20T06:12:28.607Z,26.25
2019-02-20T06:14:54.958Z,26.65
2019-02-20T06:17:21.296Z,26.44
2019-02-20T06:19:47.648Z,26.73
2019-02-20T06:22:14.007Z,26.81
2019-02-20T06:24:44.101Z,27.07
2019-02-20T06:27:07.926Z,27.18
2019-02-20T06:29:33.048Z,26.66
2019-02-20T06:31:59.402Z,26.96
2019-02-20T06:34:25.733Z,26.65
2019-02-20T06:36:52.053Z,26.81
2019-02-20T06:39:18.423Z,26.79
2019-02-20T06:41:44.836Z,27.57
2019-02-20T06:44:11.242Z,26.93
2019-02-20T06:46:37.578Z,26.88
2019-02-20T06:49:03.910Z,27.00
2019-02-20T06:51:30.382Z,26.94
2019-02-20T06:53:56.775Z,26.76
2019-02-20T06:56:23.126Z,27.16
2019-02-20T06:58:49.555Z,26.76
2019-02-20T07:01:15.971Z,26.20
2019-02-20T07:03:42.349Z,26.79
2019-02-20T07:06:08.683Z,26.53
2019-02-20T07:08:35.061Z,26.56
2019-02-20T07:11:01.400Z,26.55
2019-02-20T07:13:27.852Z,26.47
2019-02-20T07:15:54.279Z,27.01
2019-02-20T07:18:20.634Z,26.76
2019-02-20T07:20:46.957Z,26.63
2019-02-20T07:23:13.284Z,26.85
2019-02-20T07:25:39.606Z,26.22
2019-02-20T07:28:06.007Z,26.18
2019-02-20T07:30:32.345Z,26.12
2019-02-20T07:32:58.810Z,26.47
2019-02-20T07:35:25.227Z,26.74
2019-02-20T07:37:51.658Z,26.39
2019-02-20T07:40:18.028Z,26.37
2019-02-20T07:42:44.443Z,27.15
2019-02-20T07:45:11.756Z,26.27
2019-02-20T07:47:38.272Z,26.43
2019-02-20T07:50:04.583Z,26.44
2019-02-20T07:52:33.210Z,26.41
2019-02-20T07:54:59.552Z,26.88
2019-02-20T07:57:25.909Z,26.56
2019-02-20T07:59:52.250Z,26.15
2019-02-20T08:02:18.620Z,26.28
2019-02-20T08:04:44.951Z,26.05
2019-02-20T08:07:11.294Z,26.60
2019-02-20T08:09:37.676Z,26.96
2019-02-20T08:12:04.029Z,26.86
2019-02-20T08:14:30.480Z,27.14
2019-02-20T08:16:56.775Z,27.72
2019-02-20T08:19:23.126Z,26.72
2019-02-20T08:21:49.501Z,26.81
2019-02-20T08:24:15.961Z,26.60
2019-02-20T08:26:42.407Z,26.22
2019-02-20T08:29:08.708Z,26.24
2019-02-20T08:31:35.040Z,26.38
2019-02-20T08:34:01.565Z,26.43
2019-02-20T08:36:27.928Z,25.79
2019-02-20T08:38:54.287Z,26.11
2019-02-20T08:41:20.661Z,25.94
2019-02-20T08:43:46.994Z,26.40
2019-02-20T08:46:13.393Z,26.05
2019-02-20T08:48:39.733Z,25.64
2019-02-20T08:51:06.132Z,25.64
2019-02-20T08:53:32.487Z,25.82
2019-02-20T08:55:58.857Z,25.69
2019-02-20T08:58:25.280Z,25.55
2019-02-20T09:00:54.752Z,25.64
2019-02-20T09:03:21.214Z,25.95
2019-02-20T09:05:47.875Z,25.60
2019-02-20T09:08:14.950Z,25.72
2019-02-20T09:10:41.269Z,25.39
2019-02-20T09:13:07.678Z,25.41
2019-02-20T09:15:34.478Z,25.21
2019-02-20T09:18:00.856Z,24.67
2019-02-20T09:20:27.231Z,25.11
2019-02-20T09:22:53.690Z,25.53
2019-02-20T09:25:20.279Z,25.52
2019-02-20T09:27:46.852Z,25.48
2019-02-20T09:30:13.334Z,25.67
2019-02-20T09:32:39.663Z,25.54
2019-02-20T09:35:06.066Z,25.64
2019-02-20T09:37:32.514Z,25.60
2019-02-20T09:39:58.850Z,25.62
2019-02-20T09:42:25.287Z,25.47
2019-02-20T09:44:51.703Z,25.25
2019-02-20T09:47:18.048Z,25.31
2019-02-20T09:49:44.398Z,25.31
2019-02-20T09:52:10.732Z,25.82
2019-02-20T09:54:37.229Z,25.70
2019-02-20T09:57:03.656Z,25.46
2019-02-20T09:59:30.023Z,25.82
2019-02-20T10:01:56.413Z,25.26
2019-02-20T10:04:22.807Z,25.63
2019-02-20T10:06:49.179Z,25.73
2019-02-20T10:09:16.298Z,25.62
2019-02-20T10:11:41.913Z,25.38
2019-02-20T10:14:08.291Z,25.75
2019-02-20T10:16:34.607Z,25.20
2019-02-20T10:19:00.960Z,25.18
2019-02-20T10:21:27.278Z,25.51
2019-02-20T10:23:53.677Z,25.62
2019-02-20T10:26:20.030Z,25.56
2019-02-20T10:28:46.393Z,25.04
2019-02-20T10:31:12.746Z,25.28
2019-02-20T10:33:39.087Z,25.04
2019-02-20T10:36:05.429Z,24.96
2019-02-20T10:38:31.767Z,25.33
2019-02-20T10:40:58.161Z,25.21
2019-02-20T10:43:24.516Z,24.86
2019-02-20T10:45:50.869Z,24.54
2019-02-20T10:48:18.452Z,24.20
2019-02-20T10:50:44.816Z,24.72
2019-02-20T10:53:11.155Z,24.58
2019-02-20T10:55:37.497Z,24.72
2019-02-20T10:58:03.886Z,24.60
2019-02-20T11:00:30.224Z,24.79
2019-02-20T11:02:56.637Z,24.41
2019-02-20T11:05:26.521Z,24.19
2019-02-20T11:07:52.937Z,24.70
2019-02-20T11:10:19.233Z,24.33
2019-02-20T11:12:45.632Z,24.73
2019-02-20T11:15:13.135Z,24.73
2019-02-20T11:17:38.339Z,24.48
2019-02-20T11:20:04.728Z,24.22
2019-02-20T11:22:32.108Z,24.27
2019-02-20T11:24:57.407Z,24.51
2019-02-20T11:27:23.796Z,24.77
2019-02-20T11:29:50.169Z,24.88
2019-02-20T11:32:16.481Z,24.57
2019-02-20T11:34:42.869Z,24.25
2019-02-20T11:37:09.225Z,24.38
2019-02-20T11:39:37.730Z,24.01
2019-02-20T11:42:01.948Z,24.86
2019-02-20T11:44:28.335Z,24.12
2019-02-20T11:46:57.158Z,23.87
2019-02-20T11:49:23.584Z,23.90
2019-02-20T11:51:50.427Z,24.61
2019-02-20T11:54:16.785Z,24.25
2019-02-20T11:56:43.421Z,24.26
2019-02-20T11:59:10.946Z,23.90
2019-02-20T12:01:37.368Z,23.79
2019-02-20T12:04:03.713Z,24.03
2019-02-20T12:06:30.043Z,24.41
2019-02-20T12:08:56.377Z,23.64
2019-02-20T12:11:22.776Z,23.47
2019-02-20T12:13:49.119Z,24.06
2019-02-20T12:16:15.437Z,23.92
2019-02-20T12:18:41.807Z,23.93
2019-02-20T12:21:08.164Z,23.57
2019-02-20T12:23:36.713Z,23.38
2019-02-20T12:26:01.451Z,23.57
2019-02-20T12:28:27.231Z,23.19
2019-02-20T12:30:53.574Z,23.29
2019-02-20T12:33:19.966Z,22.96
2019-02-20T12:35:47.410Z,23.29
2019-02-20T12:38:13.766Z,23.37
2019-02-20T12:40:40.203Z,23.15
2019-02-20T12:43:09.007Z,22.89
2019-02-20T12:45:35.396Z,23.14
2019-02-20T12:48:01.790Z,23.34
2019-02-20T12:50:28.298Z,23.22
2019-02-20T12:52:54.653Z,23.22
2019-02-20T12:55:21.046Z,23.27
2019-02-20T12:57:47.441Z,23.12
2019-02-20T13:00:13.812Z,22.97
2019-02-20T13:02:40.161Z,23.41
2019-02-20T13:05:06.505Z,23.35
2019-02-20T13:07:33.235Z,23.07
2019-02-20T13:09:59.327Z,22.96
2019-02-20T13:12:27.830Z,23.26
2019-02-20T13:14:54.190Z,23.53
2019-02-20T13:17:20.678Z,23.72
2019-02-20T13:19:47.037Z,23.23
2019-02-20T13:22:13.387Z,23.39
2019-02-20T13:24:39.778Z,23.02
2019-02-20T13:27:08.596Z,23.01
2019-02-20T13:29:32.403Z,23.36
2019-02-20T13:31:58.882Z,23.09
2019-02-20T13:34:25.278Z,22.97
2019-02-20T13:36:51.635Z,22.99
2019-02-20T13:39:18.053Z,23.08
2019-02-20T13:41:44.516Z,23.16
2019-02-20T13:44:10.670Z,23.02
2019-02-20T13:46:37.047Z,22.97
2019-02-20T13:49:03.375Z,22.89
2019-02-20T13:51:29.808Z,23.11
2019-02-20T13:53:56.169Z,23.02
2019-02-20T13:56:22.573Z,23.09
2019-02-20T13:58:48.938Z,23.35
2019-02-20T14:01:15.285Z,23.37
2019-02-20T14:03:41.690Z,23.00
2019-02-20T14:06:08.041Z,22.94
2019-02-20T14:08:34.424Z,22.73
2019-02-20T14:11:00.803Z,23.06
2019-02-20T14:13:27.259Z,23.23
2019-02-20T14:15:53.582Z,23.25
2019-02-20T14:18:19.977Z,22.60
2019-02-20T14:20:46.318Z,22.87
2019-02-20T14:23:12.714Z,22.33
2019-02-20T14:25:39.484Z,23.18
2019-02-20T14:28:05.919Z,22.96
2019-02-20T14:30:32.289Z,22.75
2019-02-20T14:32:58.778Z,22.77
2019-02-20T14:35:25.287Z,22.82
2019-02-20T14:37:51.573Z,22.81
2019-02-20T14:40:17.922Z,22.79
2019-02-20T14:42:45.530Z,22.79
2019-02-20T14:45:11.858Z,23.28
2019-02-20T14:47:38.227Z,23.06
2019-02-20T14:50:04.602Z,22.63
2019-02-20T14:52:31.011Z,22.72
2019-02-20T14:54:57.379Z,22.55
2019-02-20T14:57:23.848Z,22.95
2019-02-20T14:59:50.170Z,22.89
2019-02-20T15:02:16.670Z,22.58
2019-02-20T15:04:43.004Z,22.87
2019-02-20T15:07:09.377Z,22.74
2019-02-20T15:09:35.729Z,23.11
2019-02-20T15:12:02.067Z,22.75
2019-02-20T15:14:28.435Z,22.96
2019-02-20T15:16:54.782Z,23.17
2019-02-20T15:19:21.184Z,23.08
2019-02-20T15:21:48.639Z,22.96
2019-02-20T15:24:15.279Z,23.19
2019-02-20T15:26:40.220Z,23.25
2019-02-20T15:29:06.560Z,23.10
2019-02-20T15:31:33.994Z,22.77
2019-02-20T15:33:59.598Z,23.31
2019-02-20T15:36:25.931Z,23.16
2019-02-20T15:38:52.272Z,23.43
2019-02-20T15:41:18.610Z,23.26
2019-02-20T15:43:44.959Z,22.74
2019-02-20T15:46:11.302Z,23.27
2019-02-20T15:48:37.685Z,23.02
2019-02-20T15:51:04.017Z,23.14
2019-02-20T15:53:30.369Z,23.22
2019-02-20T15:55:56.698Z,23.28
2019-02-20T15:58:23.131Z,23.23
2019-02-20T16:00:49.467Z,23.24
2019-02-20T16:03:15.848Z,23.19
2019-02-20T16:05:42.178Z,23.21
2019-02-20T16:08:08.556Z,23.21
2019-02-20T16:10:34.957Z,23.23
2019-02-20T16:13:01.242Z,23.28
2019-02-20T16:15:27.582Z,23.41
2019-02-20T16:17:53.907Z,23.04
2019-02-20T16:20:20.232Z,23.30
2019-02-20T16:22:46.615Z,23.16
2019-02-20T16:25:12.916Z,23.41
2019-02-20T16:27:46.707Z,23.51
2019-02-20T16:30:05.606Z,23.55
2019-02-20T16:32:31.936Z,23.41
2019-02-20T16:34:58.273Z,23.38
2019-02-20T16:37:24.627Z,23.31
2019-02-20T16:39:50.983Z,23.30
2019-02-20T16:42:17.307Z,23.30
2019-02-20T16:44:43.644Z,23.17
2019-02-20T16:47:09.997Z,23.13
2019-02-20T16:49:36.335Z,23.19
2019-02-20T16:52:02.685Z,23.13
2019-02-20T16:54:29.137Z,23.17
2019-02-20T16:56:55.465Z,23.38
2019-02-20T16:59:21.883Z,23.85
2019-02-20T17:01:48.221Z,23.28
2019-02-20T17:04:14.650Z,23.30
2019-02-20T17:06:41.083Z,23.39
2019-02-20T17:09:07.425Z,23.36
2019-02-20T17:11:33.846Z,23.74
2019-02-20T17:14:00.195Z,23.12
2019-02-20T17:16:26.534Z,23.30
2019-02-20T17:18:52.928Z,23.32
2019-02-20T17:21:19.329Z,23.30
2019-02-20T17:23:46.828Z,23.31
2019-02-20T17:26:13.188Z,23.37
2019-02-20T17:28:39.557Z,23.31
2019-02-20T17:31:05.884Z,23.39
2019-02-20T17:33:32.252Z,23.42
2019-02-20T17:35:58.606Z,23.41
2019-02-20T17:38:24.947Z,23.46
2019-02-20T17:40:51.295Z,23.43
2019-02-20T17:43:17.685Z,23.38
2019-02-20T17:45:44.035Z,23.39
2019-02-20T17:48:10.449Z,23.39
2019-02-20T17:50:36.789Z,23.37
2019-02-20T17:53:03.123Z,23.26
2019-02-20T17:55:29.443Z,23.31
2019-02-20T17:57:55.767Z,23.29
2019-02-20T18:00:22.159Z,23.32
2019-02-20T18:02:48.619Z,23.51
2019-02-20T18:05:14.955Z,23.54
2019-02-20T18:07:48.641Z,23.62
2019-02-20T18:10:07.596Z,23.78
2019-02-20T18:12:33.968Z,23.78
2019-02-20T18:15:00.299Z,23.85
2019-02-20T18:17:26.615Z,24.06
2019-02-20T18:19:52.948Z,24.15
2019-02-20T18:22:19.319Z,24.25
2019-02-20T18:24:45.650Z,24.27
2019-02-20T18:27:12.054Z,24.28
2019-02-20T18:29:38.358Z,24.31
2019-02-20T18:32:04.751Z,24.22
2019-02-20T18:34:31.069Z,24.26
2019-02-20T18:36:57.459Z,24.25
2019-02-20T18:39:23.783Z,24.20
2019-02-20T18:41:50.132Z,24.16
2019-02-20T18:44:16.463Z,24.26
2019-02-20T18:46:42.792Z,24.29
2019-02-20T18:49:09.135Z,24.19
2019-02-20T18:51:35.461Z,24.28
2019-02-20T18:54:01.877Z,24.27
2019-02-20T18:56:28.355Z,24.24
2019-02-20T18:58:54.665Z,24.25
2019-02-20T19:01:21.263Z,24.33
2019-02-20T19:03:47.522Z,24.38
2019-02-20T19:06:14.057Z,24.47
2019-02-20T19:08:40.402Z,24.47
2019-02-20T19:11:06.753Z,24.51
2019-02-20T19:13:33.083Z,24.56
2019-02-20T19:16:01.885Z,24.54
2019-02-20T19:18:25.750Z,24.58
2019-02-20T19:20:52.097Z,24.64
2019-02-20T19:23:18.451Z,24.63
2019-02-20T19:25:44.785Z,24.74
2019-02-20T19:28:11.112Z,24.78
2019-02-20T19:30:37.518Z,24.80
2019-02-20T19:33:04.118Z,24.78
2019-02-20T19:35:30.163Z,24.72
2019-02-20T19:38:05.911Z,24.73
2019-02-20T19:40:22.853Z,24.74
2019-02-20T19:42:49.235Z,24.77
2019-02-20T19:45:15.581Z,24.77
2019-02-20T19:47:41.873Z,24.80
2019-02-20T19:50:08.329Z,24.89
2019-02-20T19:52:34.566Z,24.83
2019-02-20T19:55:01.842Z,24.83
2019-02-20T19:57:27.333Z,24.80
2019-02-20T19:59:53.736Z,24.84
2019-02-20T20:02:27.850Z,24.81
2019-02-20T20:04:46.453Z,24.96
2019-02-20T20:07:12.855Z,24.98
2019-02-20T20:09:39.257Z,24.95
2019-02-20T20:12:05.484Z,24.98
2019-02-20T20:14:31.854Z,25.00
2019-02-20T20:16:58.195Z,25.03
2019-02-20T20:19:24.696Z,25.02
2019-02-20T20:21:50.913Z,24.99
2019-02-20T20:24:17.384Z,25.04
2019-02-20T20:26:43.622Z,25.09
2019-02-20T20:29:09.989Z,25.11
2019-02-20T20:31:36.370Z,25.06
2019-02-20T20:34:02.693Z,25.09
2019-02-20T20:36:29.005Z,25.12
2019-02-20T20:38:55.333Z,25.09
2019-02-20T20:41:21.741Z,25.16
2019-02-20T20:43:48.071Z,25.12
2019-02-20T20:46:14.412Z,25.09
2019-02-20T20:48:40.793Z,25.12
2019-02-20T20:51:07.123Z,25.15
2019-02-20T20:53:33.521Z,25.19
2019-02-20T20:55:59.852Z,25.19
2019-02-20T20:58:26.212Z,25.21
2019-02-20T21:00:52.549Z,25.28
2019-02-20T21:03:18.876Z,25.23
2019-02-20T21:05:45.309Z,25.24
2019-02-20T21:08:11.635Z,25.25
2019-02-20T21:10:38.056Z,25.29
2019-02-20T21:13:04.401Z,25.23
2019-02-20T21:15:30.730Z,25.24
2019-02-20T21:17:57.381Z,25.35
2019-02-20T21:20:23.392Z,25.37
2019-02-20T21:22:52.272Z,25.40
2019-02-20T21:25:18.601Z,25.36
2019-02-20T21:27:44.945Z,25.38
2019-02-20T21:30:13.456Z,25.44
2019-02-20T21:32:39.258Z,25.28
2019-02-20T21:35:04.016Z,25.21
2019-02-20T21:37:30.348Z,25.44
2019-02-20T21:39:56.683Z,25.44
2019-02-20T21:42:23.017Z,25.51
2019-02-20T21:44:49.439Z,25.70
2019-02-20T21:47:15.762Z,25.67
2019-02-20T21:49:42.171Z,25.76
2019-02-20T21:52:08.507Z,25.93
2019-02-20T21:54:34.949Z,26.27
2019-02-20T21:57:01.323Z,26.23
2019-02-20T21:59:27.649Z,26.41
2019-02-20T22:01:53.989Z,26.47
2019-02-20T22:04:20.340Z,26.46
2019-02-20T22:06:46.796Z,26.54
2019-02-20T22:09:13.129Z,26.55
2019-02-20T22:11:39.455Z,26.60
2019-02-20T22:14:05.826Z,26.61
2019-02-20T22:16:32.166Z,26.71
2019-02-20T22:18:58.580Z,26.76
2019-02-20T22:21:24.995Z,26.74
2019-02-20T22:23:51.342Z,26.77
2019-02-20T22:26:17.690Z,26.94
2019-02-20T22:28:44.009Z,26.92
2019-02-20T22:31:10.416Z,26.89
2019-02-20T22:33:36.745Z,27.00
2019-02-20T22:36:03.150Z,27.02
2019-02-20T22:38:29.481Z,26.96
2019-02-20T22:40:55.803Z,26.96
2019-02-20T22:43:22.198Z,26.97
2019-02-20T22:45:48.529Z,27.04
2019-02-20T22:48:14.910Z,27.11
2019-02-20T22:50:41.235Z,27.17
2019-02-20T22:53:07.671Z,27.13
2019-02-20T22:55:34.015Z,27.17
2019-02-20T22:58:00.353Z,27.23
2019-02-20T23:00:34.319Z,27.18
2019-02-20T23:02:53.119Z,27.17
2019-02-20T23:05:19.482Z,27.15
2019-02-20T23:07:45.859Z,27.25
2019-02-20T23:10:12.213Z,27.15
2019-02-20T23:12:38.570Z,27.25
2019-02-20T23:15:04.907Z,27.42
2019-02-20T23:17:31.240Z,27.31
2019-02-20T23:19:57.651Z,27.36
2019-02-20T23:22:24.045Z,27.31
2019-02-20T23:24:50.379Z,27.32
2019-02-20T23:27:16.707Z,27.37
2019-02-20T23:29:43.170Z,27.31
2019-02-20T23:32:09.494Z,27.38
2019-02-20T23:34:35.853Z,27.37
2019-02-20T23:37:02.182Z,27.47
2019-02-20T23:39:28.565Z,27.44
2019-02-20T23:41:54.904Z,27.55
2019-02-20T23:44:21.276Z,27.47
2019-02-20T23:46:47.898Z,27.53
2019-02-20T23:49:14.242Z,27.47
2019-02-20T23:51:40.568Z,27.49
2019-02-20T23:54:06.939Z,27.58
2019-02-20T23:56:33.301Z,27.47
2019-02-20T23:58:59.647Z,27.57
